sensor_id;sensor_type;location;lat;lon;timestamp;pressure;altitude;pressure_sealevel;temperature;humidity
28588;BME280;15787;49.662;10.162;2023-04-29T00:00:41;98685.53;;;10.95;100.00
28588;BME280;15787;49.662;10.162;2023-04-29T00:03:14;98686.88;;;10.45;100.00
28588;BME280;15787;49.662;10.162;2023-04-29T00:05:49;98681.31;;;10.45;100.00
28588;BME280;15787;49.662;10.162;2023-04-29T00:08:22;98681.63;;;10.63;100.00
28588;BME280;15787;49.662;10.162;2023-04-29T00:10:55;98677.91;;;10.83;100.00
28588;BME280;15787;49.662;10.162;2023-04-29T00:13:28;98688.72;;;10.80;100.00
28588;BME280;15787;49.662;10.162;2023-04-29T00:16:01;98684.22;;;10.70;100.00
28588;BME280;15787;49.662;10.162;2023-04-29T00:18:34;98685.91;;;10.80;100.00
28588;BME280;15787;49.662;10.162;2023-04-29T00:21:09;98690.22;;;10.40;100.00
28588;BME280;15787;49.662;10.162;2023-04-29T00:23:42;98695.97;;;10.49;100.00
28588;BME280;15787;49.662;10.162;2023-04-29T00:26:15;98699.88;;;10.80;100.00
28588;BME280;15787;49.662;10.162;2023-04-29T00:28:50;98693.06;;;10.53;100.00
28588;BME280;15787;49.662;10.162;2023-04-29T00:31:24;98710.03;;;10.74;100.00
28588;BME280;15787;49.662;10.162;2023-04-29T00:33:56;98696.72;;;10.66;100.00
28588;BME280;15787;49.662;10.162;2023-04-29T00:36:31;98704.75;;;10.64;100.00
28588;BME280;15787;49.662;10.162;2023-04-29T00:39:04;98701.69;;;10.58;100.00
28588;BME280;15787;49.662;10.162;2023-04-29T00:41:38;98700.44;;;10.14;100.00
28588;BME280;15787;49.662;10.162;2023-04-29T00:44:11;98693.44;;;10.39;100.00
28588;BME280;15787;49.662;10.162;2023-04-29T00:46:44;98694.38;;;10.48;100.00
28588;BME280;15787;49.662;10.162;2023-04-29T00:49:16;98696.78;;;10.34;100.00
28588;BME280;15787;49.662;10.162;2023-04-29T00:51:51;98701.94;;;10.19;100.00
28588;BME280;15787;49.662;10.162;2023-04-29T00:54:25;98690.31;;;10.37;100.00
28588;BME280;15787;49.662;10.162;2023-04-29T00:56:58;98687.41;;;10.56;100.00
28588;BME280;15787;49.662;10.162;2023-04-29T00:59:32;98698.66;;;10.53;100.00
28588;BME280;15787;49.662;10.162;2023-04-29T01:02:05;98697.09;;;10.52;100.00
28588;BME280;15787;49.662;10.162;2023-04-29T01:04:38;98693.53;;;10.80;100.00
28588;BME280;15787;49.662;10.162;2023-04-29T01:07:15;98688.81;;;10.48;100.00
28588;BME280;15787;49.662;10.162;2023-04-29T01:09:57;98680.59;;;10.86;100.00
28588;BME280;15787;49.662;10.162;2023-04-29T01:12:40;98683.72;;;10.59;100.00
28588;BME280;15787;49.662;10.162;2023-04-29T01:15:27;98687.41;;;10.56;100.00
28588;BME280;15787;49.662;10.162;2023-04-29T01:18:04;98689.44;;;10.07;100.00
28588;BME280;15787;49.662;10.162;2023-04-29T01:20:38;98697.31;;;10.29;100.00
28588;BME280;15787;49.662;10.162;2023-04-29T01:23:14;98696.78;;;10.18;100.00
28588;BME280;15787;49.662;10.162;2023-04-29T01:25:48;98703.22;;;10.31;100.00
28588;BME280;15787;49.662;10.162;2023-04-29T01:28:45;98704.44;;;10.30;100.00
28588;BME280;15787;49.662;10.162;2023-04-29T01:31:24;98701.22;;;10.47;100.00
28588;BME280;15787;49.662;10.162;2023-04-29T01:34:07;98703.41;;;10.24;100.00
28588;BME280;15787;49.662;10.162;2023-04-29T01:36:53;98698.09;;;10.29;100.00
28588;BME280;15787;49.662;10.162;2023-04-29T01:39:32;98693.38;;;10.42;100.00
28588;BME280;15787;49.662;10.162;2023-04-29T01:42:20;98687.41;;;10.40;100.00
28588;BME280;15787;49.662;10.162;2023-04-29T01:44:59;98682.63;;;10.41;100.00
28588;BME280;15787;49.662;10.162;2023-04-29T01:47:32;98686.47;;;10.47;100.00
28588;BME280;15787;49.662;10.162;2023-04-29T01:50:06;98689.97;;;10.35;100.00
28588;BME280;15787;49.662;10.162;2023-04-29T01:52:39;98694.25;;;10.39;100.00
28588;BME280;15787;49.662;10.162;2023-04-29T01:55:12;98693.25;;;9.97;100.00
28588;BME280;15787;49.662;10.162;2023-04-29T01:57:55;98690.06;;;9.11;100.00
28588;BME280;15787;49.662;10.162;2023-04-29T02:01:00;98694.19;;;9.03;100.00
28588;BME280;15787;49.662;10.162;2023-04-29T02:03:36;98688.06;;;9.47;100.00
28588;BME280;15787;49.662;10.162;2023-04-29T02:06:12;98684.81;;;9.85;100.00
28588;BME280;15787;49.662;10.162;2023-04-29T02:08:45;98689.19;;;9.86;100.00
28588;BME280;15787;49.662;10.162;2023-04-29T02:11:20;98683.53;;;10.22;100.00
28588;BME280;15787;49.662;10.162;2023-04-29T02:13:55;98688.63;;;10.07;100.00
28588;BME280;15787;49.662;10.162;2023-04-29T02:16:28;98686.75;;;10.20;100.00
28588;BME280;15787;49.662;10.162;2023-04-29T02:19:05;98681.19;;;10.65;100.00
28588;BME280;15787;49.662;10.162;2023-04-29T02:21:38;98699.63;;;9.98;100.00
28588;BME280;15787;49.662;10.162;2023-04-29T02:24:11;98697.53;;;10.02;100.00
28588;BME280;15787;49.662;10.162;2023-04-29T02:26:44;98698.94;;;9.78;100.00
28588;BME280;15787;49.662;10.162;2023-04-29T02:29:18;98703.56;;;10.00;100.00
28588;BME280;15787;49.662;10.162;2023-04-29T02:31:51;98707.22;;;9.97;100.00
28588;BME280;15787;49.662;10.162;2023-04-29T02:34:24;98702.81;;;10.16;100.00
28588;BME280;15787;49.662;10.162;2023-04-29T02:36:57;98707.06;;;10.21;100.00
28588;BME280;15787;49.662;10.162;2023-04-29T02:39:30;98713.63;;;10.14;100.00
28588;BME280;15787;49.662;10.162;2023-04-29T02:42:03;98713.25;;;10.12;100.00
28588;BME280;15787;49.662;10.162;2023-04-29T02:44:37;98713.63;;;10.14;100.00
28588;BME280;15787;49.662;10.162;2023-04-29T02:47:10;98709.94;;;10.17;100.00
28588;BME280;15787;49.662;10.162;2023-04-29T02:49:43;98717.69;;;9.93;100.00
28588;BME280;15787;49.662;10.162;2023-04-29T02:52:16;98716.91;;;10.09;100.00
28588;BME280;15787;49.662;10.162;2023-04-29T02:54:50;98723.88;;;10.17;100.00
28588;BME280;15787;49.662;10.162;2023-04-29T02:57:22;98720.22;;;10.20;100.00
28588;BME280;15787;49.662;10.162;2023-04-29T02:59:57;98722.06;;;10.27;100.00
28588;BME280;15787;49.662;10.162;2023-04-29T03:02:29;98716.38;;;10.30;100.00
28588;BME280;15787;49.662;10.162;2023-04-29T03:05:04;98723.19;;;10.13;100.00
28588;BME280;15787;49.662;10.162;2023-04-29T03:07:37;98717.63;;;10.13;100.00
28588;BME280;15787;49.662;10.162;2023-04-29T03:10:10;98725.03;;;10.20;100.00
28588;BME280;15787;49.662;10.162;2023-04-29T03:12:43;98718.31;;;10.17;100.00
28588;BME280;15787;49.662;10.162;2023-04-29T03:15:17;98718.03;;;10.11;100.00
28588;BME280;15787;49.662;10.162;2023-04-29T03:17:50;98723.03;;;10.20;100.00
28588;BME280;15787;49.662;10.162;2023-04-29T03:20:23;98725.47;;;10.18;100.00
28588;BME280;15787;49.662;10.162;2023-04-29T03:22:56;98725.22;;;10.29;100.00
28588;BME280;15787;49.662;10.162;2023-04-29T03:25:30;98730.59;;;10.20;100.00
28588;BME280;15787;49.662;10.162;2023-04-29T03:28:03;98717.63;;;10.29;100.00
28588;BME280;15787;49.662;10.162;2023-04-29T03:30:37;98722.94;;;10.24;100.00
28588;BME280;15787;49.662;10.162;2023-04-29T03:33:11;98720.69;;;10.19;100.00
28588;BME280;15787;49.662;10.162;2023-04-29T03:35:43;98715.56;;;10.62;100.00
28588;BME280;15787;49.662;10.162;2023-04-29T03:38:42;98715.03;;;10.67;100.00
28588;BME280;15787;49.662;10.162;2023-04-29T03:41:15;98715.38;;;10.69;100.00
28588;BME280;15787;49.662;10.162;2023-04-29T03:43:48;98711.72;;;10.72;100.00
28588;BME280;15787;49.662;10.162;2023-04-29T03:46:23;98701.75;;;11.00;100.00
28588;BME280;15787;49.662;10.162;2023-04-29T03:48:57;98698.53;;;10.72;100.00
28588;BME280;15787;49.662;10.162;2023-04-29T03:51:30;98705.97;;;10.92;100.00
28588;BME280;15787;49.662;10.162;2023-04-29T03:54:12;98706.44;;;10.90;100.00
28588;BME280;15787;49.662;10.162;2023-04-29T03:56:45;98712.88;;;10.87;100.00
28588;BME280;15787;49.662;10.162;2023-04-29T03:59:18;98714.84;;;10.74;100.00
28588;BME280;15787;49.662;10.162;2023-04-29T04:01:53;98724.19;;;10.67;100.00
28588;BME280;15787;49.662;10.162;2023-04-29T04:04:26;98720.22;;;10.81;100.00
28588;BME280;15787;49.662;10.162;2023-04-29T04:06:59;98718.59;;;10.96;100.00
28588;BME280;15787;49.662;10.162;2023-04-29T04:09:46;98728.53;;;10.85;100.00
28588;BME280;15787;49.662;10.162;2023-04-29T04:12:19;98724.31;;;10.93;100.00
28588;BME280;15787;49.662;10.162;2023-04-29T04:14:52;98728.91;;;10.99;100.00
28588;BME280;15787;49.662;10.162;2023-04-29T04:17:27;98736.41;;;11.02;100.00
28588;BME280;15787;49.662;10.162;2023-04-29T04:20:00;98727.78;;;10.97;100.00
28588;BME280;15787;49.662;10.162;2023-04-29T04:22:34;98745.41;;;10.94;100.00
28588;BME280;15787;49.662;10.162;2023-04-29T04:25:17;98742.44;;;11.01;100.00
28588;BME280;15787;49.662;10.162;2023-04-29T04:27:51;98752.53;;;11.11;100.00
28588;BME280;15787;49.662;10.162;2023-04-29T04:30:42;98748.66;;;11.21;100.00
28588;BME280;15787;49.662;10.162;2023-04-29T04:33:20;98757.63;;;11.28;100.00
28588;BME280;15787;49.662;10.162;2023-04-29T04:35:53;98749.03;;;11.35;100.00
28588;BME280;15787;49.662;10.162;2023-04-29T04:38:26;98746.84;;;11.14;100.00
28588;BME280;15787;49.662;10.162;2023-04-29T04:40:59;98748.00;;;11.29;100.00
28588;BME280;15787;49.662;10.162;2023-04-29T04:43:37;98750.75;;;11.58;100.00
28588;BME280;15787;49.662;10.162;2023-04-29T04:46:18;98752.75;;;11.58;100.00
28588;BME280;15787;49.662;10.162;2023-04-29T04:49:09;98756.59;;;11.64;100.00
28588;BME280;15787;49.662;10.162;2023-04-29T04:51:48;98768.09;;;11.53;100.00
28588;BME280;15787;49.662;10.162;2023-04-29T04:54:21;98765.84;;;11.48;100.00
28588;BME280;15787;49.662;10.162;2023-04-29T04:56:57;98763.25;;;11.41;100.00
28588;BME280;15787;49.662;10.162;2023-04-29T04:59:30;98761.75;;;11.78;100.00
28588;BME280;15787;49.662;10.162;2023-04-29T05:02:04;98755.75;;;11.92;100.00
28588;BME280;15787;49.662;10.162;2023-04-29T05:04:38;98772.41;;;11.95;100.00
28588;BME280;15787;49.662;10.162;2023-04-29T05:07:11;98772.09;;;12.06;100.00
28588;BME280;15787;49.662;10.162;2023-04-29T05:10:04;98772.31;;;11.99;100.00
28588;BME280;15787;49.662;10.162;2023-04-29T05:12:45;98774.97;;;11.90;100.00
28588;BME280;15787;49.662;10.162;2023-04-29T05:15:18;98777.59;;;12.10;100.00
28588;BME280;15787;49.662;10.162;2023-04-29T05:17:54;98780.94;;;12.04;100.00
28588;BME280;15787;49.662;10.162;2023-04-29T05:20:29;98783.28;;;12.06;100.00
28588;BME280;15787;49.662;10.162;2023-04-29T05:23:04;98782.06;;;12.20;100.00
28588;BME280;15787;49.662;10.162;2023-04-29T05:25:42;98781.81;;;12.01;100.00
28588;BME280;15787;49.662;10.162;2023-04-29T05:28:15;98776.88;;;12.18;100.00
28588;BME280;15787;49.662;10.162;2023-04-29T05:30:50;98778.25;;;12.14;100.00
28588;BME280;15787;49.662;10.162;2023-04-29T05:33:23;98782.16;;;12.29;100.00
28588;BME280;15787;49.662;10.162;2023-04-29T05:35:57;98776.09;;;12.43;100.00
28588;BME280;15787;49.662;10.162;2023-04-29T05:38:30;98790.19;;;12.52;100.00
28588;BME280;15787;49.662;10.162;2023-04-29T05:41:11;98788.63;;;12.26;100.00
28588;BME280;15787;49.662;10.162;2023-04-29T05:43:50;98793.25;;;12.20;100.00
28588;BME280;15787;49.662;10.162;2023-04-29T05:46:23;98791.06;;;12.61;100.00
28588;BME280;15787;49.662;10.162;2023-04-29T05:48:57;98804.97;;;12.52;100.00
28588;BME280;15787;49.662;10.162;2023-04-29T05:51:31;98805.09;;;12.49;100.00
28588;BME280;15787;49.662;10.162;2023-04-29T05:54:04;98804.53;;;12.54;100.00
28588;BME280;15787;49.662;10.162;2023-04-29T05:56:37;98813.16;;;12.59;100.00
28588;BME280;15787;49.662;10.162;2023-04-29T05:59:11;98816.25;;;12.74;100.00
28588;BME280;15787;49.662;10.162;2023-04-29T06:01:44;98819.00;;;12.99;100.00
28588;BME280;15787;49.662;10.162;2023-04-29T06:04:17;98829.59;;;12.83;100.00
28588;BME280;15787;49.662;10.162;2023-04-29T06:07:14;98834.97;;;12.77;100.00
28588;BME280;15787;49.662;10.162;2023-04-29T06:10:17;98839.91;;;12.86;100.00
28588;BME280;15787;49.662;10.162;2023-04-29T06:12:50;98840.88;;;12.92;100.00
28588;BME280;15787;49.662;10.162;2023-04-29T06:15:23;98848.06;;;12.93;100.00
28588;BME280;15787;49.662;10.162;2023-04-29T06:17:55;98850.97;;;12.89;100.00
28588;BME280;15787;49.662;10.162;2023-04-29T06:20:29;98858.94;;;12.91;100.00
28588;BME280;15787;49.662;10.162;2023-04-29T06:23:04;98859.59;;;12.95;100.00
28588;BME280;15787;49.662;10.162;2023-04-29T06:25:37;98861.13;;;13.21;100.00
28588;BME280;15787;49.662;10.162;2023-04-29T06:28:12;98866.19;;;13.13;100.00
28588;BME280;15787;49.662;10.162;2023-04-29T06:30:45;98871.13;;;13.22;100.00
28588;BME280;15787;49.662;10.162;2023-04-29T06:33:18;98879.94;;;13.33;100.00
28588;BME280;15787;49.662;10.162;2023-04-29T06:35:53;98879.31;;;13.51;100.00
28588;BME280;15787;49.662;10.162;2023-04-29T06:38:43;98887.94;;;13.56;100.00
28588;BME280;15787;49.662;10.162;2023-04-29T06:41:55;98889.63;;;13.54;100.00
28588;BME280;15787;49.662;10.162;2023-04-29T06:44:48;98898.22;;;13.25;100.00
28588;BME280;15787;49.662;10.162;2023-04-29T06:47:39;98904.94;;;13.27;100.00
28588;BME280;15787;49.662;10.162;2023-04-29T06:50:15;98898.53;;;13.40;100.00
28588;BME280;15787;49.662;10.162;2023-04-29T06:52:48;98901.53;;;13.45;100.00
28588;BME280;15787;49.662;10.162;2023-04-29T06:55:23;98909.31;;;13.63;100.00
28588;BME280;15787;49.662;10.162;2023-04-29T06:57:56;98917.94;;;13.47;100.00
28588;BME280;15787;49.662;10.162;2023-04-29T07:00:28;98915.41;;;13.61;100.00
28588;BME280;15787;49.662;10.162;2023-04-29T07:03:02;98917.88;;;13.59;100.00
28588;BME280;15787;49.662;10.162;2023-04-29T07:05:35;98920.44;;;13.66;100.00
28588;BME280;15787;49.662;10.162;2023-04-29T07:08:10;98927.03;;;13.72;100.00
28588;BME280;15787;49.662;10.162;2023-04-29T07:10:52;98934.13;;;13.64;100.00
28588;BME280;15787;49.662;10.162;2023-04-29T07:13:27;98935.94;;;13.92;100.00
28588;BME280;15787;49.662;10.162;2023-04-29T07:16:00;98937.50;;;14.15;100.00
28588;BME280;15787;49.662;10.162;2023-04-29T07:18:33;98937.97;;;14.35;100.00
28588;BME280;15787;49.662;10.162;2023-04-29T07:21:06;98934.28;;;14.26;100.00
28588;BME280;15787;49.662;10.162;2023-04-29T07:23:39;98941.88;;;14.38;100.00
28588;BME280;15787;49.662;10.162;2023-04-29T07:26:16;98938.16;;;14.41;100.00
28588;BME280;15787;49.662;10.162;2023-04-29T07:28:49;98947.97;;;14.36;100.00
28588;BME280;15787;49.662;10.162;2023-04-29T07:31:22;98947.53;;;14.25;98.55
28588;BME280;15787;49.662;10.162;2023-04-29T07:33:55;98950.41;;;13.91;98.01
28588;BME280;15787;49.662;10.162;2023-04-29T07:36:29;98958.13;;;14.43;97.86
28588;BME280;15787;49.662;10.162;2023-04-29T07:39:02;98959.00;;;14.31;97.01
28588;BME280;15787;49.662;10.162;2023-04-29T07:41:37;98966.97;;;14.32;96.61
28588;BME280;15787;49.662;10.162;2023-04-29T07:44:10;98960.97;;;14.52;96.27
28588;BME280;15787;49.662;10.162;2023-04-29T07:46:42;98969.25;;;14.46;94.80
28588;BME280;15787;49.662;10.162;2023-04-29T07:49:15;98963.78;;;14.52;93.39
28588;BME280;15787;49.662;10.162;2023-04-29T07:51:48;98969.22;;;14.77;93.55
28588;BME280;15787;49.662;10.162;2023-04-29T07:54:21;98979.56;;;14.80;92.15
28588;BME280;15787;49.662;10.162;2023-04-29T07:56:58;98976.81;;;14.89;91.50
28588;BME280;15787;49.662;10.162;2023-04-29T07:59:31;98983.56;;;15.01;90.00
28588;BME280;15787;49.662;10.162;2023-04-29T08:02:06;98983.59;;;15.10;89.12
28588;BME280;15787;49.662;10.162;2023-04-29T08:04:39;98987.06;;;15.23;88.18
28588;BME280;15787;49.662;10.162;2023-04-29T08:07:15;98991.19;;;15.00;88.52
28588;BME280;15787;49.662;10.162;2023-04-29T08:09:47;98992.91;;;14.98;87.22
28588;BME280;15787;49.662;10.162;2023-04-29T08:12:22;98996.91;;;15.18;86.81
28588;BME280;15787;49.662;10.162;2023-04-29T08:14:55;98994.59;;;15.26;84.91
28588;BME280;15787;49.662;10.162;2023-04-29T08:17:28;99006.34;;;14.94;83.71
28588;BME280;15787;49.662;10.162;2023-04-29T08:20:01;99008.94;;;15.19;83.95
28588;BME280;15787;49.662;10.162;2023-04-29T08:22:34;99010.97;;;15.18;82.58
28588;BME280;15787;49.662;10.162;2023-04-29T08:25:07;99006.97;;;15.38;82.89
28588;BME280;15787;49.662;10.162;2023-04-29T08:27:42;99008.72;;;15.44;82.98
28588;BME280;15787;49.662;10.162;2023-04-29T08:30:16;99008.72;;;15.44;81.94
28588;BME280;15787;49.662;10.162;2023-04-29T08:32:49;99012.91;;;15.40;82.51
28588;BME280;15787;49.662;10.162;2023-04-29T08:35:22;99011.16;;;15.33;81.89
28588;BME280;15787;49.662;10.162;2023-04-29T08:37:55;99011.84;;;14.97;80.98
28588;BME280;15787;49.662;10.162;2023-04-29T08:40:28;99017.25;;;15.23;81.96
28588;BME280;15787;49.662;10.162;2023-04-29T08:43:03;99023.75;;;15.10;82.30
28588;BME280;15787;49.662;10.162;2023-04-29T08:45:36;99021.13;;;15.16;82.27
28588;BME280;15787;49.662;10.162;2023-04-29T08:48:10;99018.38;;;15.34;83.07
28588;BME280;15787;49.662;10.162;2023-04-29T08:50:43;99019.06;;;15.07;82.96
28588;BME280;15787;49.662;10.162;2023-04-29T08:53:17;99030.53;;;15.22;80.87
28588;BME280;15787;49.662;10.162;2023-04-29T08:55:49;99028.50;;;15.23;79.74
28588;BME280;15787;49.662;10.162;2023-04-29T08:58:24;99031.22;;;15.04;78.65
28588;BME280;15787;49.662;10.162;2023-04-29T09:01:00;99030.22;;;15.20;80.07
28588;BME280;15787;49.662;10.162;2023-04-29T09:03:39;99031.81;;;15.39;79.24
28588;BME280;15787;49.662;10.162;2023-04-29T09:06:13;99039.66;;;15.44;79.84
28588;BME280;15787;49.662;10.162;2023-04-29T09:08:46;99034.44;;;15.25;79.05
28588;BME280;15787;49.662;10.162;2023-04-29T09:11:20;99036.06;;;15.44;79.67
28588;BME280;15787;49.662;10.162;2023-04-29T09:13:57;99033.75;;;15.51;80.61
28588;BME280;15787;49.662;10.162;2023-04-29T09:16:30;99039.78;;;15.41;79.90
28588;BME280;15787;49.662;10.162;2023-04-29T09:19:03;99038.97;;;15.22;80.23
28588;BME280;15787;49.662;10.162;2023-04-29T09:21:36;99042.59;;;15.41;80.16
28588;BME280;15787;49.662;10.162;2023-04-29T09:24:09;99042.94;;;15.43;80.67
28588;BME280;15787;49.662;10.162;2023-04-29T09:26:43;99043.25;;;15.45;79.52
28588;BME280;15787;49.662;10.162;2023-04-29T09:29:17;99039.28;;;15.33;79.69
28588;BME280;15787;49.662;10.162;2023-04-29T09:31:50;99048.22;;;15.32;79.93
28588;BME280;15787;49.662;10.162;2023-04-29T09:34:31;99045.97;;;15.17;78.97
28588;BME280;15787;49.662;10.162;2023-04-29T09:37:22;99039.63;;;15.75;80.31
28588;BME280;15787;49.662;10.162;2023-04-29T09:39:55;99049.94;;;15.87;78.96
28588;BME280;15787;49.662;10.162;2023-04-29T09:42:28;99049.97;;;15.96;79.37
28588;BME280;15787;49.662;10.162;2023-04-29T09:45:03;99059.84;;;16.28;78.39
28588;BME280;15787;49.662;10.162;2023-04-29T09:47:36;99050.78;;;16.24;76.96
28588;BME280;15787;49.662;10.162;2023-04-29T09:50:10;99061.91;;;16.09;77.35
28588;BME280;15787;49.662;10.162;2023-04-29T09:52:44;99059.84;;;16.10;76.86
28588;BME280;15787;49.662;10.162;2023-04-29T09:55:17;99052.94;;;16.20;76.86
28588;BME280;15787;49.662;10.162;2023-04-29T09:57:50;99058.13;;;16.12;76.28
28588;BME280;15787;49.662;10.162;2023-04-29T10:00:26;99064.38;;;16.25;76.15
28588;BME280;15787;49.662;10.162;2023-04-29T10:03:03;99066.28;;;16.28;75.22
28588;BME280;15787;49.662;10.162;2023-04-29T10:05:37;99068.78;;;16.63;75.85
28588;BME280;15787;49.662;10.162;2023-04-29T10:08:10;99067.53;;;16.36;73.65
28588;BME280;15787;49.662;10.162;2023-04-29T10:10:44;99070.34;;;16.18;74.68
28588;BME280;15787;49.662;10.162;2023-04-29T10:13:17;99070.66;;;16.20;74.46
28588;BME280;15787;49.662;10.162;2023-04-29T10:15:57;99060.63;;;16.37;74.65
28588;BME280;15787;49.662;10.162;2023-04-29T10:18:34;99071.47;;;16.57;74.42
28588;BME280;15787;49.662;10.162;2023-04-29T10:21:08;99074.13;;;16.70;73.06
28588;BME280;15787;49.662;10.162;2023-04-29T10:23:43;99067.88;;;16.57;72.30
28588;BME280;15787;49.662;10.162;2023-04-29T10:26:18;99066.91;;;16.41;73.66
28588;BME280;15787;49.662;10.162;2023-04-29T10:28:54;99071.56;;;16.17;74.69
28588;BME280;15787;49.662;10.162;2023-04-29T10:31:29;99065.94;;;16.08;74.25
28588;BME280;15787;49.662;10.162;2023-04-29T10:34:03;99068.91;;;15.96;75.52
28588;BME280;15787;49.662;10.162;2023-04-29T10:36:36;99073.44;;;16.02;76.63
28588;BME280;15787;49.662;10.162;2023-04-29T10:39:14;99076.91;;;16.06;76.31
28588;BME280;15787;49.662;10.162;2023-04-29T10:41:51;99073.09;;;15.73;75.32
28588;BME280;15787;49.662;10.162;2023-04-29T10:44:25;99068.13;;;15.95;75.97
28588;BME280;15787;49.662;10.162;2023-04-29T10:47:21;99067.03;;;16.02;74.50
28588;BME280;15787;49.662;10.162;2023-04-29T10:50:04;99069.25;;;16.61;73.90
28588;BME280;15787;49.662;10.162;2023-04-29T10:52:53;99075.03;;;16.58;74.37
28588;BME280;15787;49.662;10.162;2023-04-29T10:55:26;99076.72;;;17.00;74.32
28588;BME280;15787;49.662;10.162;2023-04-29T10:57:59;99072.72;;;17.16;73.15
28588;BME280;15787;49.662;10.162;2023-04-29T11:00:36;99073.47;;;16.75;70.10
28588;BME280;15787;49.662;10.162;2023-04-29T11:03:47;99078.34;;;16.74;71.16
28588;BME280;15787;49.662;10.162;2023-04-29T11:06:22;99074.81;;;17.06;73.03
28588;BME280;15787;49.662;10.162;2023-04-29T11:09:00;99077.03;;;17.02;72.11
28588;BME280;15787;49.662;10.162;2023-04-29T11:11:41;99082.16;;;17.64;71.63
28588;BME280;15787;49.662;10.162;2023-04-29T11:14:18;99082.47;;;17.06;68.96
28588;BME280;15787;49.662;10.162;2023-04-29T11:16:55;99088.13;;;17.15;69.42
28588;BME280;15787;49.662;10.162;2023-04-29T11:19:32;99088.66;;;16.86;69.79
28588;BME280;15787;49.662;10.162;2023-04-29T11:22:10;99091.66;;;16.74;69.11
28588;BME280;15787;49.662;10.162;2023-04-29T11:24:49;99091.94;;;16.49;70.41
28588;BME280;15787;49.662;10.162;2023-04-29T11:27:24;99098.19;;;16.16;70.86
28588;BME280;15787;49.662;10.162;2023-04-29T11:29:57;99092.88;;;16.09;72.12
28588;BME280;15787;49.662;10.162;2023-04-29T11:32:31;99101.38;;;15.69;72.19
28588;BME280;15787;49.662;10.162;2023-04-29T11:35:10;99100.75;;;15.65;73.17
28588;BME280;15787;49.662;10.162;2023-04-29T11:37:45;99105.66;;;15.83;74.16
28588;BME280;15787;49.662;10.162;2023-04-29T11:40:18;99102.03;;;15.73;73.59
28588;BME280;15787;49.662;10.162;2023-04-29T11:42:51;99102.94;;;15.70;73.56
28588;BME280;15787;49.662;10.162;2023-04-29T11:45:24;99108.50;;;15.52;73.58
28588;BME280;15787;49.662;10.162;2023-04-29T11:47:58;99110.72;;;15.57;74.91
28588;BME280;15787;49.662;10.162;2023-04-29T11:50:33;99121.38;;;15.71;74.68
28588;BME280;15787;49.662;10.162;2023-04-29T11:53:07;99107.31;;;15.41;73.98
28588;BME280;15787;49.662;10.162;2023-04-29T11:55:41;99120.56;;;15.53;74.10
28588;BME280;15787;49.662;10.162;2023-04-29T11:58:14;99119.38;;;15.72;73.66
28588;BME280;15787;49.662;10.162;2023-04-29T12:00:47;99122.41;;;15.47;73.56
28588;BME280;15787;49.662;10.162;2023-04-29T12:03:20;99119.53;;;15.77;74.82
28588;BME280;15787;49.662;10.162;2023-04-29T12:05:55;99116.13;;;15.82;73.81
28588;BME280;15787;49.662;10.162;2023-04-29T12:08:29;99125.78;;;15.72;74.54
28588;BME280;15787;49.662;10.162;2023-04-29T12:11:06;99127.38;;;15.43;74.95
28588;BME280;15787;49.662;10.162;2023-04-29T12:13:39;99127.66;;;15.14;74.33
28588;BME280;15787;49.662;10.162;2023-04-29T12:16:12;99125.78;;;15.42;74.55
28588;BME280;15787;49.662;10.162;2023-04-29T12:18:45;99126.69;;;15.39;75.27
28588;BME280;15787;49.662;10.162;2023-04-29T12:21:20;99122.16;;;15.32;74.46
28588;BME280;15787;49.662;10.162;2023-04-29T12:23:53;99128.19;;;15.22;74.21
28588;BME280;15787;49.662;10.162;2023-04-29T12:26:27;99125.38;;;15.22;74.54
28588;BME280;15787;49.662;10.162;2023-04-29T12:29:00;99133.41;;;15.10;73.90
28588;BME280;15787;49.662;10.162;2023-04-29T12:31:33;99133.22;;;15.48;74.18
28588;BME280;15787;49.662;10.162;2023-04-29T12:34:07;99139.16;;;15.29;74.83
28588;BME280;15787;49.662;10.162;2023-04-29T12:36:42;99139.22;;;15.38;74.44
28588;BME280;15787;49.662;10.162;2023-04-29T12:39:16;99124.06;;;15.44;75.40
28588;BME280;15787;49.662;10.162;2023-04-29T12:41:54;99134.81;;;15.37;75.18
28588;BME280;15787;49.662;10.162;2023-04-29T12:44:34;99131.78;;;15.22;75.16
28588;BME280;15787;49.662;10.162;2023-04-29T12:47:08;99136.97;;;15.54;75.55
28588;BME280;15787;49.662;10.162;2023-04-29T12:49:42;99137.31;;;15.35;75.32
28588;BME280;15787;49.662;10.162;2023-04-29T12:52:16;99138.88;;;15.05;77.56
28588;BME280;15787;49.662;10.162;2023-04-29T12:54:50;99131.66;;;15.04;77.82
28588;BME280;15787;49.662;10.162;2023-04-29T12:57:23;99143.38;;;15.02;79.29
28588;BME280;15787;49.662;10.162;2023-04-29T12:59:56;99141.94;;;15.19;78.41
28588;BME280;15787;49.662;10.162;2023-04-29T13:02:29;99141.50;;;14.99;79.59
28588;BME280;15787;49.662;10.162;2023-04-29T13:05:03;99137.84;;;15.20;78.10
28588;BME280;15787;49.662;10.162;2023-04-29T13:07:37;99132.41;;;15.26;77.30
28588;BME280;15787;49.662;10.162;2023-04-29T13:10:10;99144.94;;;15.03;76.83
28588;BME280;15787;49.662;10.162;2023-04-29T13:12:44;99136.50;;;15.25;75.77
28588;BME280;15787;49.662;10.162;2023-04-29T13:15:18;99139.66;;;15.36;76.28
28588;BME280;15787;49.662;10.162;2023-04-29T13:17:52;99137.16;;;15.38;75.91
28588;BME280;15787;49.662;10.162;2023-04-29T13:20:26;99139.34;;;15.65;76.41
28588;BME280;15787;49.662;10.162;2023-04-29T13:23:00;99137.56;;;15.89;75.30
28588;BME280;15787;49.662;10.162;2023-04-29T13:25:33;99138.88;;;16.15;73.59
28588;BME280;15787;49.662;10.162;2023-04-29T13:28:06;99140.19;;;16.41;73.48